Agnew, Nebraska
Current Conditions -  °F | °C
As of 10:54 AM on Wednesday 22 Oct 2014 (Local Time) from KLNK Reporting Station
Clear Clear  
Wind Chill: 19°   Ceiling: Unl
Heat Index: 19°   Visibility: 10mi
Dew Point: 11°   Wind: 15mph
Humidity: 57%   Direction: 160°SSE
Pressure: 30.08"   Gusts: NA
Location:  40.9964°N, 96.8004°W
Report Text: KLNK 221554Z 16013KT 10SM CLR 19/11 A3008 RMK AO2 SLP180 T01940106
Loading
Personal Weather Stations






























Interactive Weather Map
Tropical Storm Tracking
New forecast layout! Learn more

10-Day Weather Forecast

Advertisements
Track Severe Weather on mobile